Dallas/Fort Worth (DFW/KDFW)

Information

Location
Dallas/Fort Worth, TX
Local Time
17:23 / 5:23 pm
GMT Time
23:23 / 11:23 pm
No FAA reported delays
METAR KDFW 182253Z 17012KT 10SM OVC050 07/M11 A3034 RMK AO2 SLP276 T00671106 $
TAF KDFW 182104Z 1821/1924 19011KT P6SM BKN050 FM191400 18014KT P6SM FEW040